Latest Weather Observations for kunanyi / Mount Wellington

IDT60801

Issued at 7:02 pm EDT Tuesday 28 February 2017 (issued every 30 minutes, with the page automatically refreshed every 10 minutes)

About weather observations | Map of weather stations | Latest weather observations for TAS | Other Formats
Station Details ID: 094087 Name: KUNANYI (MOUNT WELLINGTON PINNACLE) Lat: -42.90 Lon: 147.24 Height: 1260.47 m
Data from the previous 72 hours. | See also: Recent months at kunanyi / Mount Wellington
Date/Time
EDT
Temp
°C
App
Temp
°C
Dew
Point
°C
Rel
Hum
%
Delta-T
°C
Wind Press
QNH
hPa
Press
MSL
hPa
Rain since
9am
mm
Dir  Spd
km/h
Gust
km/h
Spd
kts
Gust
kts
28/07:00pm 18.1 16.1 7.2 49 5.9 W 7 11 4 6 - - 0.0
28/06:30pm 18.7 16.7 6.9 46 6.3 WNW 7 13 4 7 - - 0.0
28/06:00pm 18.3 16.3 7.1 48 6.0 NNW 7 9 4 5 - - 0.0
28/05:30pm 18.5 16.2 7.6 49 5.9 N 9 13 5 7 - - 0.0
28/05:00pm 18.6 15.0 6.8 46 6.3 NNW 15 19 8 10 - - 0.0
28/04:30pm 18.4 14.6 5.6 43 6.7 N 15 19 8 10 - - 0.0
28/04:00pm 18.6 15.8 6.8 46 6.3 N 11 20 6 11 - - 0.0
28/03:30pm 19.0 17.5 8.6 51 5.8 NNE 6 19 3 10 - - 0.0
28/03:00pm 18.8 16.2 7.9 49 6.0 NNE 11 19 6 10 - - 0.0
28/02:30pm 19.5 17.1 8.5 49 6.1 N 11 17 6 9 - - 0.0
28/02:00pm 19.1 16.8 9.0 52 5.6 NNE 11 17 6 9 - - 0.0
28/01:30pm 17.9 15.5 8.5 54 5.2 NNE 11 17 6 9 - - 0.0
28/01:00pm 17.5 15.4 8.1 54 5.1 N 9 15 5 8 - - 0.0
28/12:30pm 17.6 16.4 7.9 53 5.3 N 4 9 2 5 - - 0.0
28/12:00pm 18.6 15.2 1.6 32 8.2 WSW 9 15 5 8 - - 0.0
28/11:30am 17.6 13.7 1.2 33 7.8 WSW 11 15 6 8 - - 0.0
28/11:00am 18.2 13.9 0.8 31 8.3 WSW 13 17 7 9 - - 0.0
28/10:30am 17.7 12.9 -0.1 30 8.3 WSW 15 19 8 10 - - 0.0
28/10:00am 17.8 12.5 -3.6 23 9.3 W 15 22 8 12 - - 0.0
28/09:30am 17.4 12.6 -2.8 25 8.8 W 13 19 7 10 - - 0.0
28/09:00am 16.7 12.8 -5.1 22 9.0 WNW 7 11 4 6 - - 0.0
28/08:30am 15.2 10.1 -5.2 24 8.3 WNW 13 15 7 8 - - 0.0
28/08:00am 14.3 10.0 -4.9 26 7.8 NW 9 13 5 7 - - 0.0
28/07:30am 13.9 8.9 -8.0 21 8.3 NW 11 13 6 7 - - 0.0
28/07:00am 13.5 8.8 -9.0 20 8.3 WNW 9 9 5 5 - - 0.0
28/06:30am 13.0 8.7 -8.8 21 8.0 W 7 9 4 5 - - 0.0
28/06:00am 12.5 9.5 -5.0 29 7.0 WNW 2 4 1 2 - - 0.0
28/05:30am 12.4 8.3 -3.4 33 6.5 NW 9 11 5 6 - - 0.0
28/05:00am 12.7 8.7 -2.0 36 6.3 NW 9 15 5 8 - - 0.0
28/04:30am 11.3 7.8 1.0 49 4.6 NW 9 11 5 6 - - 0.0
28/04:00am 11.4 8.2 2.9 56 4.0 NW 9 13 5 7 - - 0.0
28/03:30am 11.2 7.5 4.4 63 3.3 NW 13 15 7 8 - - 0.0
28/03:00am 11.1 8.3 5.2 67 2.9 NNW 9 13 5 7 - - 0.0
28/02:30am 10.7 9.3 5.5 70 2.6 NW 2 6 1 3 - - 0.0
28/02:00am 12.5 9.8 5.7 63 3.4 N 9 13 5 7 - - 0.0
28/01:30am 11.9 9.6 5.5 65 3.2 NNW 7 13 4 7 - - 0.0
28/01:00am 11.0 8.3 5.7 70 2.6 WNW 9 11 5 6 - - 0.0
28/12:30am 12.1 9.1 5.9 66 3.1 NW 11 13 6 7 - - 0.0
28/12:00am 12.3 8.9 5.9 65 3.2 NW 13 17 7 9 - - 0.0
 
Date/Time
EDT
Temp
°C
App
Temp
°C
Dew
Point
°C
Rel
Hum
%
Delta-T
°C
Wind Press
QNH
hPa
Press
MSL
hPa
Rain since
9am
mm
Dir  Spd
km/h
Gust
km/h
Spd
kts
Gust
kts
27/11:30pm 13.0 8.9 6.1 63 3.5 NW 17 20 9 11 - - 0.0
27/11:00pm 13.3 9.2 6.2 62 3.6 NW 17 20 9 11 - - 0.0
27/10:30pm 13.5 10.6 6.6 63 3.6 NW 11 15 6 8 - - 0.0
27/10:00pm 12.6 9.8 7.1 69 2.8 NW 11 13 6 7 - - 0.0
27/09:30pm 13.0 9.5 7.2 68 3.0 NNW 15 20 8 11 - - 0.0
27/09:00pm 13.2 9.0 7.4 68 3.0 NNW 19 24 10 13 - - 0.0
27/08:30pm 13.3 9.5 7.7 69 2.9 N 17 20 9 11 - - 0.0
27/08:00pm 13.8 9.6 7.3 65 3.4 N 19 22 10 12 - - 0.0
27/07:30pm 14.4 10.0 7.5 63 3.6 N 20 24 11 13 - - 0.0
27/07:00pm 15.4 11.5 6.9 57 4.5 N 17 22 9 12 - - 0.0
27/06:30pm 16.4 12.8 6.8 53 5.1 N 15 19 8 10 - - 0.0
27/06:00pm 16.5 13.2 6.6 52 5.2 NE 13 19 7 10 - - 0.0
27/05:30pm 17.5 14.3 7.0 50 5.6 NNE 13 20 7 11 - - 0.0
27/05:00pm 17.5 14.1 5.8 46 6.1 NNE 13 20 7 11 - - 0.0
27/04:30pm 17.9 14.5 5.8 45 6.3 N 13 20 7 11 - - 0.0
27/04:00pm 16.6 12.9 4.3 44 6.2 N 13 20 7 11 - - 0.0
27/03:30pm 18.1 14.3 5.7 44 6.5 N 15 20 8 11 - - 0.0
27/03:00pm 16.9 12.2 5.2 46 6.0 N 19 30 10 16 - - 0.0
27/02:30pm 16.9 12.0 5.2 46 6.0 N 20 26 11 14 - - 0.0
27/02:00pm 15.8 11.6 5.7 51 5.2 N 17 30 9 16 - - 0.0
27/01:30pm 15.4 11.3 6.2 54 4.8 N 17 24 9 13 - - 0.0
27/01:00pm 14.9 11.1 5.7 54 4.7 N 15 24 8 13 - - 0.0
27/12:30pm 14.0 10.0 4.9 54 4.5 NNW 15 26 8 14 - - 0.0
27/12:00pm 13.9 10.0 5.3 56 4.3 NNW 15 24 8 13 - - 0.0
27/11:30am 14.6 8.7 -2.3 31 7.3 N 19 24 10 13 - - 0.0
27/11:00am 14.9 7.4 -8.5 19 8.9 N 24 32 13 17 - - 0.0
27/10:30am 13.8 7.1 -4.4 28 7.4 NNW 22 32 12 17 - - 0.0
27/10:00am 13.4 6.1 -6.2 25 7.7 NNW 24 35 13 19 - - 0.0
27/09:30am 12.5 4.7 -7.5 24 7.5 N 26 33 14 18 - - 0.0
27/09:00am 12.5 6.3 -2.9 34 6.4 NNW 20 28 11 15 - - 0.0
27/08:30am 11.4 3.4 -5.5 30 6.6 NNW 28 33 15 18 - - 0.0
27/08:00am 10.3 2.8 0.9 52 4.2 NNW 30 41 16 22 - - 0.0
27/07:30am 9.7 3.0 3.4 65 3.0 NNW 28 35 15 19 - - 0.0
27/07:00am 9.3 1.8 3.3 66 2.8 NNW 32 37 17 20 - - 0.0
27/06:30am 9.2 1.8 4.2 71 2.4 NNW 32 39 17 21 - - 0.0
27/06:00am 9.4 1.9 4.6 72 2.3 NNW 33 41 18 22 - - 0.0
27/05:30am 9.5 2.0 4.5 71 2.4 NNW 33 39 18 21 - - 0.0
27/05:00am 9.6 2.4 4.8 72 2.3 N 32 35 17 19 - - 0.0
27/04:30am 9.4 3.1 3.8 68 2.6 NNW 26 32 14 17 - - 0.0
27/04:00am 9.6 3.0 4.2 69 2.6 N 28 32 15 17 - - 0.0
27/03:30am 10.0 3.7 3.7 65 3.0 N 26 32 14 17 - - 0.0
27/03:00am 10.2 3.5 3.7 64 3.1 N 28 32 15 17 - - 0.0
27/02:30am 9.9 3.7 4.5 69 2.6 NNW 26 30 14 16 - - 0.0
27/02:00am 9.7 4.1 5.3 74 2.1 NNW 24 28 13 15 - - 0.0
27/01:30am 9.8 4.2 5.6 75 2.1 NNW 24 28 13 15 - - 0.0
27/01:00am 9.6 4.3 5.0 73 2.2 NNW 22 26 12 14 - - 0.0
27/12:30am 9.2 3.9 5.0 75 2.0 NNW 22 28 12 15 - - 0.0
27/12:00am 8.9 3.7 5.5 79 1.7 N 22 30 12 16 - - 0.0
 
Date/Time
EDT
Temp
°C
App
Temp
°C
Dew
Point
°C
Rel
Hum
%
Delta-T
°C
Wind Press
QNH
hPa
Press
MSL
hPa
Rain since
9am
mm
Dir  Spd
km/h
Gust
km/h
Spd
kts
Gust
kts
26/11:30pm 8.7 4.2 6.2 84 1.2 NNE 19 24 10 13 - - 0.0
26/11:00pm 8.8 4.7 6.3 84 1.2 N 17 22 9 12 - - 0.0
26/10:30pm 9.2 5.6 6.6 84 1.3 N 15 19 8 10 - - 0.0
26/10:00pm 9.2 6.7 6.5 83 1.3 NNE 9 13 5 7 - - 0.0
26/09:30pm 9.3 6.8 6.6 83 1.4 NNE 9 11 5 6 - - 0.0
26/09:00pm 9.2 7.1 6.8 85 1.2 NE 7 9 4 5 - - 0.0
26/08:30pm 9.2 7.4 7.0 86 1.1 ENE 6 7 3 4 - - 0.0
26/08:00pm 9.9 7.5 6.8 81 1.6 ENE 9 11 5 6 - - 0.0
26/07:30pm 10.4 8.3 6.7 78 1.9 NE 7 13 4 7 - - 0.0
26/07:00pm 11.3 9.3 6.4 72 2.5 NE 6 9 3 5 - - 0.0
26/06:30pm 11.8 9.2 6.1 68 2.9 NNE 9 11 5 6 - - 0.0
26/06:00pm 12.6 9.9 5.5 62 3.6 N 9 13 5 7 - - 0.0
26/05:30pm 13.4 10.5 4.8 56 4.3 N 9 13 5 7 - - 0.0
26/05:00pm 12.6 9.8 5.1 60 3.7 N 9 11 5 6 - - 0.0
26/04:30pm 13.7 11.2 4.6 54 4.5 NNE 7 15 4 8 - - 0.0
26/04:00pm 13.8 10.5 4.7 54 4.5 NNE 11 17 6 9 - - 0.0
26/03:30pm 13.1 9.7 5.8 61 3.7 NE 13 30 7 16 - - 0.0
26/03:00pm 13.7 9.3 2.9 48 5.2 N 15 26 8 14 - - 0.0
26/02:30pm 13.8 9.7 4.1 52 4.8 N 15 24 8 13 - - 0.0
26/02:00pm 13.5 9.2 5.2 57 4.2 NNW 17 24 9 13 - - 0.0
26/01:30pm 13.4 8.7 2.9 49 5.0 NNW 17 24 9 13 - - 0.0
26/01:00pm 12.0 7.9 4.5 60 3.7 N 15 26 8 14 - - 0.0
26/12:30pm 12.0 9.0 6.1 67 3.0 N 11 20 6 11 - - 0.0
26/12:00pm 11.5 8.8 5.8 68 2.9 NNE 9 15 5 8 - - 0.0
26/11:30am 10.6 8.2 5.2 69 2.7 N 7 13 4 7 - - 0.0
26/11:00am 10.4 8.3 5.8 73 2.3 N 6 9 3 5 - - 0.0
26/10:30am 10.9 8.0 1.4 52 4.3 WSW 6 9 3 5 - - 0.0
26/10:00am 9.5 5.6 1.4 57 3.6 WSW 11 15 6 8 - - 0.0
26/09:30am 8.8 5.0 1.7 61 3.2 WSW 11 17 6 9 - - 0.0
26/09:00am 8.4 4.2 -0.6 53 3.8 SW 11 17 6 9 - - 0.0
26/08:30am 7.7 3.9 -0.5 56 3.4 W 9 13 5 7 - - 0.0
26/08:00am 6.5 0.9 -0.2 62 2.8 WSW 19 22 10 12 - - 0.0
26/07:30am 6.9 1.3 -0.1 61 2.9 WSW 19 24 10 13 - - 0.0
26/07:00am 6.1 0.4 2.7 79 1.5 WSW 22 26 12 14 - - 0.0
26/06:30am 6.0 -0.2 2.3 77 1.6 WSW 24 32 13 17 - - 0.0
26/06:00am 5.8 -0.8 2.3 78 1.5 WSW 26 35 14 19 - - 0.0
26/05:30am 5.8 -2.2 3.6 86 1.0 WSW 35 44 19 24 - - 0.0
26/05:00am 6.2 -1.4 3.0 80 1.4 WSW 32 39 17 21 - - 0.0
26/04:30am 6.0 -2.1 3.2 82 1.3 WSW 35 43 19 23 - - 0.0
26/04:00am 5.6 -3.3 2.9 83 1.2 WSW 39 46 21 25 - - 0.0
26/03:30am 5.4 -3.0 1.5 76 1.7 W 35 46 19 25 - - 0.0
26/03:00am 4.5 -2.9 2.0 84 1.1 WNW 30 37 16 20 - - 0.0
26/02:30am 4.9 -2.3 2.9 87 0.9 WNW 30 43 16 23 - - 0.0
26/02:00am 3.6 -3.2 3.3 98 0.1 NW 28 32 15 17 - - 0.0
26/01:30am 4.0 -1.9 3.7 98 0.1 NNW 24 28 13 15 - - 0.0
26/01:00am 3.6 -2.4 3.3 98 0.1 NNW 24 28 13 15 - - 0.0
26/12:30am 3.3 -1.8 3.0 98 0.1 NNW 19 24 10 13 - - 0.0
26/12:00am 3.6 -1.5 3.3 98 0.1 NNE 19 22 10 12 - - 0.0
 
Date/Time
EDT
Temp
°C
App
Temp
°C
Dew
Point
°C
Rel
Hum
%
Delta-T
°C
Wind Press
QNH
hPa
Press
MSL
hPa
Rain since
9am
mm
Dir  Spd
km/h
Gust
km/h
Spd
kts
Gust
kts
25/11:30pm 3.8 -0.5 3.4 97 0.2 N 15 19 8 10 - - 0.0
25/11:00pm 3.9 -0.7 3.5 97 0.2 NNE 17 19 9 10 - - 0.0
25/10:30pm 4.0 0.5 3.6 97 0.2 NE 11 15 6 8 - - 0.0
25/10:00pm 4.0 1.2 3.4 96 0.3 ENE 7 11 4 6 - - 0.0
25/09:30pm 4.2 1.4 3.3 94 0.4 ENE 7 13 4 7 - - 0.0
25/09:00pm 4.0 1.4 3.1 94 0.4 E 6 9 3 5 - - 0.0
25/08:30pm 4.4 1.5 2.8 89 0.7 ENE 7 11 4 6 - - 0.0
25/08:00pm 4.7 2.3 2.4 85 1.0 ENE 4 7 2 4 - - 0.0
25/07:30pm 5.8 3.0 1.9 76 1.7 NNE 6 7 3 4 - - 0.0

Other Formats:

Comma delimited format used in spreadsheet applications
http://www.bom.gov.au/fwo/IDT60801/IDT60801.95979.axf

JavaScript Object Notation format (JSON) in row-major order
http://www.bom.gov.au/fwo/IDT60801/IDT60801.95979.json